createdAt,value
2022-07-25T00:02:12.258Z,22.54
2022-07-25T00:04:42.391Z,22.52
2022-07-25T00:07:10.711Z,22.47
2022-07-25T00:09:38.643Z,22.48
2022-07-25T00:12:08.887Z,22.45
2022-07-25T00:14:39.340Z,22.48
2022-07-25T00:17:07.297Z,22.58
2022-07-25T00:19:35.249Z,22.35
2022-07-25T00:22:03.614Z,22.15
2022-07-25T00:24:31.579Z,21.92
2022-07-25T00:26:59.703Z,21.96
2022-07-25T00:29:29.131Z,21.68
2022-07-25T00:31:57.035Z,21.77
2022-07-25T00:34:25.295Z,21.56
2022-07-25T00:36:53.327Z,21.68
2022-07-25T00:39:21.330Z,21.75
2022-07-25T00:41:49.340Z,21.77
2022-07-25T00:44:25.114Z,21.87
2022-07-25T00:46:54.761Z,21.85
2022-07-25T00:49:23.517Z,21.72
2022-07-25T00:51:52.289Z,21.60
2022-07-25T00:54:20.809Z,21.76
2022-07-25T00:56:49.752Z,21.82
2022-07-25T00:59:17.741Z,21.82
2022-07-25T01:01:48.437Z,21.83
2022-07-25T01:04:18.435Z,21.81
2022-07-25T01:06:46.486Z,21.71
2022-07-25T01:09:14.676Z,21.63
2022-07-25T01:11:42.811Z,21.46
2022-07-25T01:14:10.751Z,21.43
2022-07-25T01:16:40.974Z,21.34
2022-07-25T01:19:10.199Z,21.35
2022-07-25T01:21:40.885Z,21.53
2022-07-25T01:24:09.733Z,21.24
2022-07-25T01:26:38.164Z,21.33
2022-07-25T01:29:06.866Z,21.35
2022-07-25T01:31:35.081Z,21.24
2022-07-25T01:34:03.648Z,20.99
2022-07-25T01:36:31.908Z,21.00
2022-07-25T01:39:01.817Z,21.16
2022-07-25T01:41:30.266Z,21.38
2022-07-25T01:43:58.634Z,21.39
2022-07-25T01:46:26.752Z,21.42
2022-07-25T01:48:54.829Z,21.40
2022-07-25T01:51:22.829Z,21.17
2022-07-25T01:53:54.539Z,21.17
2022-07-25T01:56:23.745Z,21.32
2022-07-25T01:58:51.855Z,21.42
2022-07-25T02:01:22.024Z,21.31
2022-07-25T02:03:51.446Z,21.31
2022-07-25T02:06:20.817Z,21.34
2022-07-25T02:08:49.955Z,21.33
2022-07-25T02:11:18.195Z,21.21
2022-07-25T02:13:47.842Z,21.25
2022-07-25T02:16:16.083Z,21.23
2022-07-25T02:18:44.310Z,20.98
2022-07-25T02:21:14.579Z,20.89
2022-07-25T02:23:43.609Z,20.92
2022-07-25T02:26:12.116Z,20.81
2022-07-25T02:28:40.598Z,20.81
2022-07-25T02:31:10.441Z,20.87
2022-07-25T02:33:38.899Z,20.84
2022-07-25T02:36:07.654Z,20.88
2022-07-25T02:38:36.008Z,21.03
2022-07-25T02:41:04.721Z,21.10
2022-07-25T02:43:32.650Z,21.05
2022-07-25T02:46:00.988Z,20.95
2022-07-25T02:48:30.465Z,20.96
2022-07-25T02:50:58.517Z,20.92
2022-07-25T02:53:47.143Z,20.98
2022-07-25T02:56:14.315Z,21.00
2022-07-25T02:58:42.841Z,21.12
2022-07-25T03:01:11.311Z,20.98
2022-07-25T03:03:40.747Z,20.98
2022-07-25T03:06:08.799Z,20.97
2022-07-25T03:08:36.752Z,20.84
2022-07-25T03:11:05.030Z,20.63
2022-07-25T03:13:34.111Z,20.52
2022-07-25T03:16:02.168Z,20.42
2022-07-25T03:18:30.077Z,20.44
2022-07-25T03:21:00.274Z,20.44
2022-07-25T03:23:28.460Z,20.45
2022-07-25T03:25:57.108Z,20.47
2022-07-25T03:28:25.326Z,20.38
2022-07-25T03:30:53.940Z,20.38
2022-07-25T03:33:22.024Z,20.03
2022-07-25T03:35:50.249Z,20.14
2022-07-25T03:38:19.676Z,20.23
2022-07-25T03:40:47.815Z,20.22
2022-07-25T03:43:15.742Z,20.29
2022-07-25T03:45:44.091Z,20.35
2022-07-25T03:48:12.507Z,20.41
2022-07-25T03:50:40.519Z,20.47
2022-07-25T03:53:10.191Z,20.56
2022-07-25T03:55:40.745Z,20.56
2022-07-25T03:58:09.000Z,20.50
2022-07-25T04:00:37.585Z,20.41
2022-07-25T04:03:05.734Z,20.16
2022-07-25T04:05:34.095Z,20.17
2022-07-25T04:08:02.009Z,20.28
2022-07-25T04:10:30.006Z,20.14
2022-07-25T04:12:59.400Z,19.87
2022-07-25T04:15:27.607Z,19.82
2022-07-25T04:17:57.420Z,19.72
2022-07-25T04:20:25.532Z,19.76
2022-07-25T04:22:53.598Z,19.81
2022-07-25T04:25:21.747Z,19.80
2022-07-25T04:27:49.814Z,19.83
2022-07-25T04:30:24.381Z,19.79
2022-07-25T04:32:53.494Z,19.84
2022-07-25T04:35:21.731Z,19.86
2022-07-25T04:37:50.335Z,19.81
2022-07-25T04:40:18.402Z,19.95
2022-07-25T04:42:46.643Z,19.98
2022-07-25T04:45:17.603Z,20.15
2022-07-25T04:47:48.154Z,20.26
2022-07-25T04:50:18.805Z,20.36
2022-07-25T04:52:50.112Z,20.46
2022-07-25T04:55:18.101Z,20.60
2022-07-25T04:57:47.082Z,20.71
2022-07-25T05:00:15.852Z,20.74
2022-07-25T05:02:44.936Z,20.81
2022-07-25T05:05:21.203Z,20.93
2022-07-25T05:07:51.024Z,21.03
2022-07-25T05:10:19.118Z,21.10
2022-07-25T05:12:47.457Z,21.10
2022-07-25T05:15:16.069Z,21.17
2022-07-25T05:17:44.830Z,21.17
2022-07-25T05:20:15.230Z,21.31
2022-07-25T05:22:43.779Z,21.44
2022-07-25T05:25:12.584Z,21.47
2022-07-25T05:27:41.042Z,21.69
2022-07-25T05:30:11.183Z,21.64
2022-07-25T05:32:40.304Z,21.65
2022-07-25T05:35:10.348Z,21.82
2022-07-25T05:37:39.876Z,22.03
2022-07-25T05:40:08.540Z,22.05
2022-07-25T05:42:36.498Z,22.04
2022-07-25T05:45:05.102Z,22.11
2022-07-25T05:47:33.203Z,22.24
2022-07-25T05:50:02.769Z,22.35
2022-07-25T05:52:31.447Z,22.47
2022-07-25T05:55:01.711Z,22.61
2022-07-25T05:57:29.927Z,22.79
2022-07-25T05:59:58.019Z,22.95
2022-07-25T06:02:26.627Z,22.97
2022-07-25T06:04:54.839Z,22.99
2022-07-25T06:07:22.790Z,22.96
2022-07-25T06:09:50.823Z,23.09
2022-07-25T06:12:20.224Z,23.29
2022-07-25T06:14:52.348Z,23.36
2022-07-25T06:17:20.362Z,23.39
2022-07-25T06:19:48.347Z,23.52
2022-07-25T06:22:16.439Z,23.58
2022-07-25T06:24:44.468Z,23.64
2022-07-25T06:27:14.969Z,23.86
2022-07-25T06:29:47.998Z,23.87
2022-07-25T06:32:16.135Z,23.77
2022-07-25T06:34:44.076Z,23.83
2022-07-25T06:37:12.098Z,24.15
2022-07-25T06:39:43.842Z,24.01
2022-07-25T06:42:13.531Z,24.21
2022-07-25T06:44:41.598Z,24.14
2022-07-25T06:47:13.077Z,24.28
2022-07-25T06:49:41.092Z,24.23
2022-07-25T06:52:09.810Z,24.28
2022-07-25T06:54:37.752Z,24.27
2022-07-25T06:57:06.063Z,24.35
2022-07-25T06:59:34.294Z,24.40
2022-07-25T07:02:02.295Z,24.50
2022-07-25T07:04:31.568Z,24.58
2022-07-25T07:06:59.429Z,24.64
2022-07-25T07:09:27.428Z,24.69
2022-07-25T07:11:55.374Z,24.80
2022-07-25T07:14:23.388Z,24.91
2022-07-25T07:16:51.562Z,25.00
2022-07-25T07:19:19.667Z,25.08
2022-07-25T07:21:51.598Z,25.21
2022-07-25T07:24:24.303Z,25.37
2022-07-25T07:26:53.536Z,25.54
2022-07-25T07:29:21.979Z,25.58
2022-07-25T07:31:50.066Z,25.56
2022-07-25T07:34:18.193Z,25.71
2022-07-25T07:36:46.772Z,25.94
2022-07-25T07:39:17.197Z,26.10
2022-07-25T07:41:45.416Z,26.02
2022-07-25T07:44:13.413Z,26.10
2022-07-25T07:46:41.440Z,26.27
2022-07-25T07:49:12.567Z,26.51
2022-07-25T07:51:41.209Z,26.61
2022-07-25T07:54:26.461Z,26.29
2022-07-25T07:56:55.870Z,26.50
2022-07-25T07:59:23.881Z,26.81
2022-07-25T08:01:52.796Z,26.89
2022-07-25T08:04:22.236Z,27.07
2022-07-25T08:06:50.475Z,27.16
2022-07-25T08:09:18.633Z,27.38
2022-07-25T08:11:46.770Z,27.54
2022-07-25T08:14:16.164Z,27.75
2022-07-25T08:16:44.582Z,27.86
2022-07-25T08:19:13.202Z,28.16
2022-07-25T08:21:41.264Z,28.29
2022-07-25T08:24:10.568Z,28.31
2022-07-25T08:26:40.242Z,28.44
2022-07-25T08:29:28.000Z,28.41
2022-07-25T08:31:57.959Z,28.57
2022-07-25T08:34:26.033Z,28.59
2022-07-25T08:36:54.776Z,28.81
2022-07-25T08:39:22.833Z,28.86
2022-07-25T08:41:52.139Z,28.90
2022-07-25T08:44:21.592Z,28.94
2022-07-25T08:46:50.890Z,28.86
2022-07-25T08:49:21.542Z,29.03
2022-07-25T08:51:51.608Z,28.93
2022-07-25T08:54:19.970Z,29.18
2022-07-25T08:56:50.847Z,29.16
2022-07-25T08:59:19.301Z,29.21
2022-07-25T09:01:47.503Z,29.41
2022-07-25T09:04:15.841Z,29.70
2022-07-25T09:06:52.380Z,29.94
2022-07-25T09:09:20.587Z,30.18
2022-07-25T09:11:50.032Z,30.32
2022-07-25T09:14:18.160Z,30.42
2022-07-25T09:16:47.234Z,30.66
2022-07-25T09:19:18.428Z,30.95
2022-07-25T09:21:58.356Z,31.15
2022-07-25T09:24:32.650Z,31.26
2022-07-25T09:27:03.216Z,31.44
2022-07-25T09:29:33.177Z,31.58
2022-07-25T09:32:03.443Z,31.90
2022-07-25T09:34:34.789Z,32.22
2022-07-25T09:37:04.142Z,32.37
2022-07-25T09:39:46.522Z,32.57
2022-07-25T09:42:21.155Z,32.59
2022-07-25T09:45:05.568Z,32.97
2022-07-25T09:47:36.280Z,33.21
2022-07-25T09:50:05.442Z,33.10
2022-07-25T09:52:34.524Z,33.17
2022-07-25T09:55:06.414Z,33.62
2022-07-25T09:57:34.499Z,34.02
2022-07-25T10:00:03.489Z,34.02
2022-07-25T10:02:50.311Z,34.27
2022-07-25T10:05:29.842Z,35.23
2022-07-25T10:07:59.754Z,36.67
2022-07-25T10:10:32.268Z,37.66
2022-07-25T10:13:10.328Z,37.80
2022-07-25T10:15:50.266Z,38.31
2022-07-25T10:18:20.321Z,38.16
2022-07-25T10:20:51.231Z,40.06
2022-07-25T10:23:21.692Z,41.61
2022-07-25T10:26:02.946Z,41.51
2022-07-25T10:28:43.355Z,40.81
2022-07-25T10:31:21.734Z,40.83
2022-07-25T10:33:57.692Z,41.10
2022-07-25T10:36:28.763Z,40.60
2022-07-25T10:39:02.701Z,39.30
2022-07-25T10:41:32.800Z,38.61
2022-07-25T10:44:03.203Z,37.57
2022-07-25T10:46:36.683Z,38.30
2022-07-25T10:49:06.850Z,38.39
2022-07-25T10:51:41.588Z,38.10
2022-07-25T10:54:15.032Z,39.05
2022-07-25T10:56:55.359Z,39.81
2022-07-25T10:59:32.924Z,40.71
2022-07-25T11:02:01.649Z,40.32
2022-07-25T11:04:30.410Z,39.30
2022-07-25T11:06:58.564Z,37.60
2022-07-25T11:09:29.186Z,37.27
2022-07-25T11:12:00.317Z,36.93
2022-07-25T11:14:32.842Z,37.64
2022-07-25T11:17:15.876Z,37.18
2022-07-25T11:19:45.505Z,36.76
2022-07-25T11:22:13.622Z,37.61
2022-07-25T11:24:43.672Z,39.99
2022-07-25T11:27:21.380Z,40.18
2022-07-25T11:29:49.971Z,38.07
2022-07-25T11:32:18.946Z,38.69
2022-07-25T11:34:50.944Z,37.86
2022-07-25T11:37:21.215Z,36.61
2022-07-25T11:39:56.274Z,36.01
2022-07-25T11:42:29.188Z,35.39
2022-07-25T11:44:57.519Z,35.03
2022-07-25T11:47:28.813Z,34.56
2022-07-25T11:49:59.416Z,34.05
2022-07-25T11:52:31.142Z,33.88
2022-07-25T11:55:01.309Z,34.12
2022-07-25T11:57:32.646Z,35.01
2022-07-25T12:00:02.924Z,35.55
2022-07-25T12:02:37.657Z,37.65
2022-07-25T12:05:08.410Z,38.05
2022-07-25T12:07:38.628Z,38.44
2022-07-25T12:10:08.962Z,39.89
2022-07-25T12:12:48.761Z,39.57
2022-07-25T12:15:19.124Z,37.80
2022-07-25T12:17:47.581Z,39.72
2022-07-25T12:20:17.391Z,37.94
2022-07-25T12:22:46.256Z,36.45
2022-07-25T12:25:14.506Z,35.62
2022-07-25T12:27:43.560Z,34.98
2022-07-25T12:30:14.797Z,34.62
2022-07-25T12:32:43.471Z,34.60
2022-07-25T12:35:14.636Z,34.20
2022-07-25T12:37:43.860Z,34.11
2022-07-25T12:40:14.395Z,34.04
2022-07-25T12:42:43.051Z,35.13
2022-07-25T12:45:14.667Z,35.08
2022-07-25T12:47:44.560Z,35.48
2022-07-25T12:50:13.492Z,36.14
2022-07-25T12:52:41.931Z,35.56
2022-07-25T12:55:13.461Z,34.85
2022-07-25T12:57:41.756Z,35.03
2022-07-25T13:00:14.629Z,34.99
2022-07-25T13:02:43.059Z,34.92
2022-07-25T13:05:14.349Z,34.95
2022-07-25T13:07:42.696Z,34.98
2022-07-25T13:10:12.727Z,34.98
2022-07-25T13:12:40.917Z,34.99
2022-07-25T13:15:09.720Z,34.48
2022-07-25T13:17:40.336Z,34.29
2022-07-25T13:20:09.960Z,34.14
2022-07-25T13:22:38.942Z,33.90
2022-07-25T13:25:07.587Z,33.66
2022-07-25T13:27:36.246Z,33.71
2022-07-25T13:30:04.559Z,33.46
2022-07-25T13:32:33.435Z,33.75
2022-07-25T13:35:02.810Z,33.80
2022-07-25T13:37:31.186Z,33.78
2022-07-25T13:39:59.488Z,33.59
2022-07-25T13:42:27.603Z,33.56
2022-07-25T13:44:55.624Z,33.02
2022-07-25T13:47:28.435Z,33.43
2022-07-25T13:49:59.830Z,33.30
2022-07-25T13:52:29.639Z,33.82
2022-07-25T13:54:58.454Z,35.46
2022-07-25T13:57:26.581Z,36.50
2022-07-25T13:59:55.495Z,36.68
2022-07-25T14:02:23.744Z,36.97
2022-07-25T14:04:52.451Z,36.63
2022-07-25T14:07:20.625Z,35.49
2022-07-25T14:09:50.351Z,35.02
2022-07-25T14:12:18.516Z,35.01
2022-07-25T14:14:46.531Z,34.78
2022-07-25T14:17:14.602Z,34.59
2022-07-25T14:19:43.593Z,34.36
2022-07-25T14:22:11.514Z,34.73
2022-07-25T14:24:39.845Z,35.63
2022-07-25T14:27:10.508Z,36.10
2022-07-25T14:29:39.009Z,36.45
2022-07-25T14:32:08.338Z,36.28
2022-07-25T14:34:37.899Z,35.92
2022-07-25T14:37:06.729Z,36.03
2022-07-25T14:39:36.378Z,35.96
2022-07-25T14:42:04.665Z,35.52
2022-07-25T14:44:34.264Z,35.46
2022-07-25T14:47:11.864Z,35.64
2022-07-25T14:49:41.215Z,34.84
2022-07-25T14:52:11.721Z,34.65
2022-07-25T14:54:41.283Z,34.33
2022-07-25T14:57:10.137Z,34.26
2022-07-25T14:59:39.763Z,34.95
2022-07-25T15:02:08.228Z,35.45
2022-07-25T15:04:36.336Z,35.53
2022-07-25T15:07:04.497Z,35.28
2022-07-25T15:09:32.700Z,35.28
2022-07-25T15:12:00.633Z,35.63
2022-07-25T15:14:29.603Z,35.58
2022-07-25T15:16:59.629Z,35.58
2022-07-25T15:19:28.054Z,35.46
2022-07-25T15:21:56.251Z,35.39
2022-07-25T15:24:28.965Z,35.27
2022-07-25T15:26:58.003Z,35.19
2022-07-25T15:29:27.804Z,35.18
2022-07-25T15:31:55.869Z,35.30
2022-07-25T15:34:25.770Z,35.27
2022-07-25T15:36:56.143Z,35.45
2022-07-25T15:39:24.476Z,35.53
2022-07-25T15:41:52.485Z,35.31
2022-07-25T15:44:20.907Z,35.24
2022-07-25T15:46:49.140Z,34.73
2022-07-25T15:49:18.726Z,34.86
2022-07-25T15:51:48.282Z,34.36
2022-07-25T15:54:16.278Z,34.15
2022-07-25T15:56:44.244Z,33.59
2022-07-25T15:59:12.315Z,33.47
2022-07-25T16:01:41.044Z,33.07
2022-07-25T16:04:09.511Z,32.90
2022-07-25T16:06:37.671Z,32.64
2022-07-25T16:09:07.777Z,32.60
2022-07-25T16:11:38.276Z,32.64
2022-07-25T16:14:06.427Z,32.54
2022-07-25T16:16:34.855Z,32.45
2022-07-25T16:19:03.544Z,32.38
2022-07-25T16:21:31.861Z,32.01
2022-07-25T16:24:00.095Z,31.89
2022-07-25T16:26:29.373Z,31.97
2022-07-25T16:28:58.447Z,31.85
2022-07-25T16:31:27.685Z,31.77
2022-07-25T16:33:55.733Z,31.93
2022-07-25T16:36:25.333Z,31.90
2022-07-25T16:38:53.674Z,31.87
2022-07-25T16:41:22.404Z,31.68
2022-07-25T16:43:51.819Z,31.74
2022-07-25T16:46:19.841Z,31.51
2022-07-25T16:48:48.776Z,31.41
2022-07-25T16:51:17.937Z,31.48
2022-07-25T16:53:46.134Z,31.45
2022-07-25T16:56:14.628Z,31.48
2022-07-25T16:58:42.787Z,31.37
2022-07-25T17:01:11.955Z,31.48
2022-07-25T17:03:40.479Z,31.42
2022-07-25T17:06:09.404Z,31.34
2022-07-25T17:08:38.723Z,31.38
2022-07-25T17:11:07.952Z,31.44
2022-07-25T17:13:36.513Z,31.39
2022-07-25T17:16:05.917Z,31.13
2022-07-25T17:18:38.069Z,31.02
2022-07-25T17:21:06.838Z,31.00
2022-07-25T17:23:35.964Z,30.87
2022-07-25T17:26:06.279Z,30.85
2022-07-25T17:28:34.485Z,30.96
2022-07-25T17:31:02.987Z,30.72
2022-07-25T17:33:31.359Z,30.58
2022-07-25T17:36:01.371Z,30.52
2022-07-25T17:38:34.879Z,30.39
2022-07-25T17:41:03.593Z,30.47
2022-07-25T17:43:31.534Z,30.20
2022-07-25T17:45:59.928Z,30.16
2022-07-25T17:48:28.780Z,30.11
2022-07-25T17:50:56.983Z,30.13
2022-07-25T17:53:27.010Z,29.94
2022-07-25T17:55:55.174Z,29.99
2022-07-25T17:58:25.790Z,29.84
2022-07-25T18:00:58.206Z,29.75
2022-07-25T18:03:30.493Z,29.93
2022-07-25T18:05:59.534Z,29.74
2022-07-25T18:08:32.989Z,29.68
2022-07-25T18:11:01.789Z,29.45
2022-07-25T18:13:30.893Z,29.48
2022-07-25T18:15:59.199Z,29.45
2022-07-25T18:18:49.768Z,29.36
2022-07-25T18:21:19.278Z,29.24
2022-07-25T18:23:48.964Z,29.37
2022-07-25T18:26:18.638Z,28.87
2022-07-25T18:28:47.596Z,28.96
2022-07-25T18:31:15.562Z,28.78
2022-07-25T18:33:43.686Z,28.68
2022-07-25T18:36:11.781Z,28.75
2022-07-25T18:38:39.947Z,28.82
2022-07-25T18:41:28.556Z,28.66
2022-07-25T18:44:03.253Z,28.89
2022-07-25T18:46:32.892Z,28.53
2022-07-25T18:49:02.259Z,28.49
2022-07-25T18:51:30.346Z,28.32
2022-07-25T18:53:58.216Z,28.31
2022-07-25T18:56:27.544Z,28.20
2022-07-25T18:58:55.907Z,28.10
2022-07-25T19:01:25.248Z,27.98
2022-07-25T19:03:57.090Z,27.98
2022-07-25T19:06:26.599Z,27.80
2022-07-25T19:08:54.651Z,27.75
2022-07-25T19:11:22.657Z,27.67
2022-07-25T19:13:52.029Z,27.73
2022-07-25T19:16:20.812Z,27.70
2022-07-25T19:18:52.531Z,27.57
2022-07-25T19:21:22.003Z,27.51
2022-07-25T19:23:51.512Z,27.35
2022-07-25T19:26:20.072Z,27.23
2022-07-25T19:28:48.568Z,27.17
2022-07-25T19:31:18.551Z,27.10
2022-07-25T19:33:47.444Z,27.05
2022-07-25T19:36:15.882Z,27.03
2022-07-25T19:38:43.884Z,27.05
2022-07-25T19:41:12.006Z,26.98
2022-07-25T19:43:40.309Z,26.88
2022-07-25T19:46:08.281Z,26.88
2022-07-25T19:48:38.336Z,26.73
2022-07-25T19:51:06.867Z,26.76
2022-07-25T19:53:34.836Z,26.80
2022-07-25T19:56:03.057Z,26.71
2022-07-25T19:58:34.215Z,26.60
2022-07-25T20:01:06.571Z,26.58
2022-07-25T20:03:35.553Z,26.57
2022-07-25T20:06:08.299Z,26.53
2022-07-25T20:08:36.733Z,26.48
2022-07-25T20:11:05.877Z,26.42
2022-07-25T20:13:34.042Z,26.28
2022-07-25T20:16:04.071Z,26.37
2022-07-25T20:18:34.984Z,26.32
2022-07-25T20:21:04.573Z,26.30
2022-07-25T20:23:32.846Z,26.26
2022-07-25T20:26:02.405Z,26.33
2022-07-25T20:28:30.951Z,26.13
2022-07-25T20:31:01.810Z,26.22
2022-07-25T20:33:29.933Z,26.14
2022-07-25T20:35:58.337Z,26.13
2022-07-25T20:38:31.027Z,26.15
2022-07-25T20:40:59.281Z,26.15
2022-07-25T20:43:28.568Z,26.12
2022-07-25T20:45:57.449Z,26.04
2022-07-25T20:48:26.350Z,25.88
2022-07-25T20:50:54.509Z,25.80
2022-07-25T20:53:22.533Z,25.67
2022-07-25T20:55:52.225Z,25.75
2022-07-25T20:58:21.125Z,25.74
2022-07-25T21:00:49.973Z,25.74
2022-07-25T21:03:18.011Z,25.86
2022-07-25T21:05:46.194Z,25.69
2022-07-25T21:08:15.342Z,25.62
2022-07-25T21:10:44.121Z,25.63
2022-07-25T21:13:13.525Z,25.51
2022-07-25T21:15:46.456Z,25.49
2022-07-25T21:18:14.291Z,25.37
2022-07-25T21:20:42.343Z,25.37
2022-07-25T21:23:11.459Z,25.38
2022-07-25T21:25:39.404Z,25.46
2022-07-25T21:28:07.723Z,25.36
2022-07-25T21:30:37.465Z,25.35
2022-07-25T21:33:05.866Z,25.42
2022-07-25T21:35:50.573Z,25.41
2022-07-25T21:38:26.766Z,25.27
2022-07-25T21:40:55.775Z,25.33
2022-07-25T21:43:23.866Z,25.25
2022-07-25T21:45:53.269Z,25.28
2022-07-25T21:48:43.094Z,25.23
2022-07-25T21:51:19.296Z,25.13
2022-07-25T21:53:51.459Z,25.07
2022-07-25T21:56:20.030Z,25.07
2022-07-25T21:58:48.110Z,25.06
2022-07-25T22:01:20.577Z,25.04
2022-07-25T22:03:48.805Z,24.97
2022-07-25T22:06:16.820Z,25.07
2022-07-25T22:08:44.729Z,25.02
2022-07-25T22:11:35.792Z,24.97
2022-07-25T22:14:01.195Z,24.95
2022-07-25T22:16:30.835Z,24.84
2022-07-25T22:18:59.703Z,24.88
2022-07-25T22:21:29.101Z,24.81
2022-07-25T22:23:56.985Z,24.83
2022-07-25T22:26:24.936Z,24.84
2022-07-25T22:28:53.390Z,24.77
2022-07-25T22:31:21.542Z,24.87
2022-07-25T22:33:50.967Z,24.85
2022-07-25T22:36:18.867Z,24.65
2022-07-25T22:38:47.188Z,24.59
2022-07-25T22:41:15.587Z,24.73
2022-07-25T22:43:57.788Z,24.56
2022-07-25T22:46:27.852Z,24.55
2022-07-25T22:48:58.144Z,24.55
2022-07-25T22:51:27.340Z,24.58
2022-07-25T22:53:55.384Z,24.69
2022-07-25T22:56:24.054Z,24.65
2022-07-25T22:58:52.051Z,24.67
2022-07-25T23:01:22.037Z,24.61
2022-07-25T23:03:50.998Z,24.60
2022-07-25T23:06:21.533Z,24.53
2022-07-25T23:08:50.048Z,24.52
2022-07-25T23:11:18.863Z,24.52
2022-07-25T23:13:46.841Z,24.47
2022-07-25T23:16:14.930Z,24.46
2022-07-25T23:18:42.875Z,24.32
2022-07-25T23:21:11.386Z,24.29
2022-07-25T23:23:41.424Z,24.16
2022-07-25T23:26:09.230Z,24.18
2022-07-25T23:28:37.444Z,24.18
2022-07-25T23:31:05.906Z,24.10
2022-07-25T23:33:33.831Z,23.98
2022-07-25T23:36:02.257Z,23.94
2022-07-25T23:38:30.151Z,23.77
2022-07-25T23:40:59.408Z,23.76
2022-07-25T23:43:56.228Z,23.64
2022-07-25T23:46:15.625Z,23.37
2022-07-25T23:48:46.180Z,23.39
2022-07-25T23:51:14.732Z,23.39
2022-07-25T23:53:42.901Z,23.41
2022-07-25T23:56:16.112Z,23.27
2022-07-25T23:58:47.558Z,23.29
